sensor_id;sensor_type;location;lat;lon;timestamp;pressure;altitude;pressure_sealevel;temperature;humidity
23427;BME280;41148;45.420;10.952;2023-04-29T00:02:03;100649.00;;;14.03;71.32
23427;BME280;41148;45.420;10.952;2023-04-29T00:04:31;100648.91;;;14.05;71.35
23427;BME280;41148;45.420;10.952;2023-04-29T00:06:59;100649.66;;;14.09;71.35
23427;BME280;41148;45.420;10.952;2023-04-29T00:09:26;100664.66;;;14.13;70.98
23427;BME280;41148;45.420;10.952;2023-04-29T00:11:53;100659.25;;;14.14;70.65
23427;BME280;41148;45.420;10.952;2023-04-29T00:14:21;100645.84;;;14.14;70.29
23427;BME280;41148;45.420;10.952;2023-04-29T00:16:48;100636.16;;;14.12;71.10
23427;BME280;41148;45.420;10.952;2023-04-29T00:19:15;100630.03;;;14.08;71.04
23427;BME280;41148;45.420;10.952;2023-04-29T00:21:44;100632.72;;;14.08;71.00
23427;BME280;41148;45.420;10.952;2023-04-29T00:24:11;100626.56;;;14.06;71.17
23427;BME280;41148;45.420;10.952;2023-04-29T00:26:38;100628.34;;;14.06;71.06
23427;BME280;41148;45.420;10.952;2023-04-29T00:29:07;100616.53;;;14.11;70.81
23427;BME280;41148;45.420;10.952;2023-04-29T00:31:35;100622.28;;;14.02;71.68
23427;BME280;41148;45.420;10.952;2023-04-29T00:34:03;100624.28;;;13.97;72.01
23427;BME280;41148;45.420;10.952;2023-04-29T00:36:31;100628.47;;;13.82;72.76
23427;BME280;41148;45.420;10.952;2023-04-29T00:38:59;100635.72;;;13.80;73.40
23427;BME280;41148;45.420;10.952;2023-04-29T00:41:26;100634.25;;;13.93;72.82
23427;BME280;41148;45.420;10.952;2023-04-29T00:43:53;100629.06;;;13.89;72.37
23427;BME280;41148;45.420;10.952;2023-04-29T00:46:21;100642.63;;;14.06;71.77
23427;BME280;41148;45.420;10.952;2023-04-29T00:48:48;100641.44;;;14.13;71.95
23427;BME280;41148;45.420;10.952;2023-04-29T00:51:17;100647.25;;;14.02;72.06
23427;BME280;41148;45.420;10.952;2023-04-29T00:53:44;100652.94;;;13.95;73.06
23427;BME280;41148;45.420;10.952;2023-04-29T00:56:14;100647.91;;;14.08;71.40
23427;BME280;41148;45.420;10.952;2023-04-29T00:58:42;100653.75;;;14.17;71.55
23427;BME280;41148;45.420;10.952;2023-04-29T01:01:16;100637.41;;;14.03;71.57
23427;BME280;41148;45.420;10.952;2023-04-29T01:03:44;100639.16;;;14.04;71.52
23427;BME280;41148;45.420;10.952;2023-04-29T01:09:17;100641.75;;;14.06;71.74
23427;BME280;41148;45.420;10.952;2023-04-29T01:12:07;100641.13;;;13.99;72.27
23427;BME280;41148;45.420;10.952;2023-04-29T01:14:38;100631.03;;;14.06;72.34
23427;BME280;41148;45.420;10.952;2023-04-29T01:17:10;100621.47;;;14.00;72.21
23427;BME280;41148;45.420;10.952;2023-04-29T01:19:46;100625.28;;;14.15;72.21
23427;BME280;41148;45.420;10.952;2023-04-29T01:22:14;100617.31;;;14.13;72.06
23427;BME280;41148;45.420;10.952;2023-04-29T01:24:44;100618.19;;;14.34;71.37
23427;BME280;41148;45.420;10.952;2023-04-29T01:30:00;100625.28;;;14.15;72.44
23427;BME280;41148;45.420;10.952;2023-04-29T01:38:17;100638.13;;;14.07;73.30
23427;BME280;41148;45.420;10.952;2023-04-29T01:41:00;100626.69;;;14.03;73.45
23427;BME280;41148;45.420;10.952;2023-04-29T01:43:33;100618.44;;;14.08;73.12
23427;BME280;41148;45.420;10.952;2023-04-29T01:46:09;100614.72;;;14.12;73.37
23427;BME280;41148;45.420;10.952;2023-04-29T01:48:38;100618.41;;;14.09;72.48
23427;BME280;41148;45.420;10.952;2023-04-29T01:51:05;100621.19;;;14.06;73.03
23427;BME280;41148;45.420;10.952;2023-04-29T01:53:33;100613.91;;;14.10;73.05
23427;BME280;41148;45.420;10.952;2023-04-29T01:56:01;100601.44;;;14.09;73.82
23427;BME280;41148;45.420;10.952;2023-04-29T01:58:39;100595.34;;;14.05;73.49
23427;BME280;41148;45.420;10.952;2023-04-29T02:01:32;100614.31;;;14.21;73.20
23427;BME280;41148;45.420;10.952;2023-04-29T02:04:01;100593.22;;;14.13;72.98
23427;BME280;41148;45.420;10.952;2023-04-29T02:06:29;100588.03;;;14.09;73.23
23427;BME280;41148;45.420;10.952;2023-04-29T02:09:01;100610.56;;;14.04;74.43
23427;BME280;41148;45.420;10.952;2023-04-29T02:11:31;100609.53;;;14.07;74.17
23427;BME280;41148;45.420;10.952;2023-04-29T02:13:58;100602.50;;;14.04;74.06
23427;BME280;41148;45.420;10.952;2023-04-29T02:16:26;100596.59;;;14.17;73.15
23427;BME280;41148;45.420;10.952;2023-04-29T02:19:01;100593.97;;;14.36;71.78
23427;BME280;41148;45.420;10.952;2023-04-29T02:21:28;100583.41;;;14.32;71.88
23427;BME280;41148;45.420;10.952;2023-04-29T02:23:55;100586.72;;;14.38;72.62
23427;BME280;41148;45.420;10.952;2023-04-29T02:26:24;100585.28;;;14.30;73.18
23427;BME280;41148;45.420;10.952;2023-04-29T02:28:54;100609.06;;;14.18;73.11
23427;BME280;41148;45.420;10.952;2023-04-29T02:31:23;100610.88;;;14.17;74.22
23427;BME280;41148;45.420;10.952;2023-04-29T02:33:50;100598.34;;;13.97;74.83
23427;BME280;41148;45.420;10.952;2023-04-29T02:36:18;100595.97;;;14.12;74.24
23427;BME280;41148;45.420;10.952;2023-04-29T02:38:46;100583.47;;;14.31;72.35
23427;BME280;41148;45.420;10.952;2023-04-29T02:41:17;100573.59;;;14.13;73.82
23427;BME280;41148;45.420;10.952;2023-04-29T02:43:47;100577.53;;;14.24;74.25
23427;BME280;41148;45.420;10.952;2023-04-29T02:46:18;100586.66;;;14.20;74.92
23427;BME280;41148;45.420;10.952;2023-04-29T02:48:46;100583.44;;;14.12;75.66
23427;BME280;41148;45.420;10.952;2023-04-29T02:51:14;100576.91;;;14.18;75.34
23427;BME280;41148;45.420;10.952;2023-04-29T02:53:42;100585.72;;;14.21;74.68
23427;BME280;41148;45.420;10.952;2023-04-29T02:56:10;100605.91;;;14.08;75.21
23427;BME280;41148;45.420;10.952;2023-04-29T02:58:37;100599.03;;;14.02;75.53
23427;BME280;41148;45.420;10.952;2023-04-29T03:01:05;100616.38;;;14.14;76.70
23427;BME280;41148;45.420;10.952;2023-04-29T03:03:33;100610.41;;;14.08;76.56
23427;BME280;41148;45.420;10.952;2023-04-29T03:06:01;100630.50;;;13.97;77.50
23427;BME280;41148;45.420;10.952;2023-04-29T03:08:28;100623.47;;;13.95;77.40
23427;BME280;41148;45.420;10.952;2023-04-29T03:10:56;100614.38;;;14.19;75.63
23427;BME280;41148;45.420;10.952;2023-04-29T03:13:23;100622.28;;;14.22;75.87
23427;BME280;41148;45.420;10.952;2023-04-29T03:15:51;100605.06;;;14.08;76.00
23427;BME280;41148;45.420;10.952;2023-04-29T03:18:18;100598.03;;;14.05;76.74
23427;BME280;41148;45.420;10.952;2023-04-29T03:20:47;100589.72;;;13.91;76.97
23427;BME280;41148;45.420;10.952;2023-04-29T03:23:14;100597.16;;;13.84;77.85
23427;BME280;41148;45.420;10.952;2023-04-29T03:25:42;100612.34;;;13.84;78.11
23427;BME280;41148;45.420;10.952;2023-04-29T03:28:09;100574.84;;;13.84;77.06
23427;BME280;41148;45.420;10.952;2023-04-29T03:30:37;100581.47;;;13.75;77.38
23427;BME280;41148;45.420;10.952;2023-04-29T03:33:05;100603.31;;;13.86;77.43
23427;BME280;41148;45.420;10.952;2023-04-29T03:35:32;100610.94;;;13.75;77.90
23427;BME280;41148;45.420;10.952;2023-04-29T03:38:26;100628.47;;;13.82;78.06
23427;BME280;41148;45.420;10.952;2023-04-29T03:40:54;100619.22;;;13.89;77.94
23427;BME280;41148;45.420;10.952;2023-04-29T03:43:22;100618.56;;;13.84;78.46
23427;BME280;41148;45.420;10.952;2023-04-29T03:45:49;100609.06;;;13.97;78.34
23427;BME280;41148;45.420;10.952;2023-04-29T03:48:20;100602.97;;;13.94;78.76
23427;BME280;41148;45.420;10.952;2023-04-29T03:50:48;100591.25;;;13.76;79.52
23427;BME280;41148;45.420;10.952;2023-04-29T03:53:15;100599.69;;;13.87;80.12
23427;BME280;41148;45.420;10.952;2023-04-29T03:55:43;100584.88;;;13.79;79.88
23427;BME280;41148;45.420;10.952;2023-04-29T03:58:11;100591.38;;;13.73;80.73
23427;BME280;41148;45.420;10.952;2023-04-29T04:00:38;100578.94;;;13.72;80.71
23427;BME280;41148;45.420;10.952;2023-04-29T04:03:11;100590.63;;;13.69;80.70
23427;BME280;41148;45.420;10.952;2023-04-29T04:05:38;100589.44;;;13.77;80.48
23427;BME280;41148;45.420;10.952;2023-04-29T04:08:10;100596.59;;;13.76;81.15
23427;BME280;41148;45.420;10.952;2023-04-29T04:10:51;100601.78;;;13.81;80.38
23427;BME280;41148;45.420;10.952;2023-04-29T04:13:36;100596.44;;;13.81;80.91
23427;BME280;41148;45.420;10.952;2023-04-29T04:16:04;100607.44;;;13.73;81.58
23427;BME280;41148;45.420;10.952;2023-04-29T04:18:32;100607.63;;;13.68;81.47
23427;BME280;41148;45.420;10.952;2023-04-29T04:21:04;100611.56;;;13.82;81.28
23427;BME280;41148;45.420;10.952;2023-04-29T04:23:32;100613.00;;;13.89;81.08
23427;BME280;41148;45.420;10.952;2023-04-29T04:26:01;100599.44;;;14.14;81.14
23427;BME280;41148;45.420;10.952;2023-04-29T04:28:49;100598.28;;;13.99;81.42
23427;BME280;41148;45.420;10.952;2023-04-29T04:31:42;100611.16;;;14.11;81.70
23427;BME280;41148;45.420;10.952;2023-04-29T04:34:14;100595.75;;;13.96;81.97
23427;BME280;41148;45.420;10.952;2023-04-29T04:36:43;100597.94;;;14.07;81.28
23427;BME280;41148;45.420;10.952;2023-04-29T04:39:10;100601.91;;;13.98;81.30
23427;BME280;41148;45.420;10.952;2023-04-29T04:41:38;100604.97;;;13.89;82.02
23427;BME280;41148;45.420;10.952;2023-04-29T04:44:05;100623.13;;;13.82;81.50
23427;BME280;41148;45.420;10.952;2023-04-29T04:46:50;100615.47;;;13.73;81.20
23427;BME280;41148;45.420;10.952;2023-04-29T04:49:32;100614.34;;;13.79;80.79
23427;BME280;41148;45.420;10.952;2023-04-29T04:52:00;100613.28;;;13.83;80.83
23427;BME280;41148;45.420;10.952;2023-04-29T04:54:28;100609.91;;;13.78;81.90
23427;BME280;41148;45.420;10.952;2023-04-29T04:57:04;100603.59;;;13.80;81.79
23427;BME280;41148;45.420;10.952;2023-04-29T04:59:32;100612.09;;;13.90;82.12
23427;BME280;41148;45.420;10.952;2023-04-29T05:02:00;100601.03;;;13.97;81.83
23427;BME280;41148;45.420;10.952;2023-04-29T05:04:28;100601.16;;;13.74;82.13
23427;BME280;41148;45.420;10.952;2023-04-29T05:06:56;100598.56;;;13.72;82.10
23427;BME280;41148;45.420;10.952;2023-04-29T05:09:27;100610.06;;;13.74;82.18
23427;BME280;41148;45.420;10.952;2023-04-29T05:11:54;100614.41;;;13.77;82.02
23427;BME280;41148;45.420;10.952;2023-04-29T05:14:22;100604.16;;;13.66;82.51
23427;BME280;41148;45.420;10.952;2023-04-29T05:16:49;100627.88;;;13.75;83.31
23427;BME280;41148;45.420;10.952;2023-04-29T05:19:20;100622.56;;;13.74;83.96
23427;BME280;41148;45.420;10.952;2023-04-29T05:21:47;100614.00;;;13.66;83.06
23427;BME280;41148;45.420;10.952;2023-04-29T05:24:15;100605.34;;;13.59;83.35
23427;BME280;41148;45.420;10.952;2023-04-29T05:26:43;100626.94;;;13.77;83.60
23427;BME280;41148;45.420;10.952;2023-04-29T05:29:11;100624.56;;;13.69;84.34
23427;BME280;41148;45.420;10.952;2023-04-29T05:31:46;100619.41;;;13.64;84.63
23427;BME280;41148;45.420;10.952;2023-04-29T05:34:14;100638.16;;;13.64;84.70
23427;BME280;41148;45.420;10.952;2023-04-29T05:36:41;100633.44;;;13.71;84.23
23427;BME280;41148;45.420;10.952;2023-04-29T05:39:09;100629.19;;;13.65;84.59
23427;BME280;41148;45.420;10.952;2023-04-29T05:41:36;100636.75;;;13.76;84.78
23427;BME280;41148;45.420;10.952;2023-04-29T05:44:18;100614.78;;;13.68;84.69
23427;BME280;41148;45.420;10.952;2023-04-29T05:46:45;100629.75;;;13.73;84.35
23427;BME280;41148;45.420;10.952;2023-04-29T05:49:15;100650.94;;;13.78;83.99
23427;BME280;41148;45.420;10.952;2023-04-29T05:51:42;100641.88;;;13.82;83.94
23427;BME280;41148;45.420;10.952;2023-04-29T05:54:10;100636.63;;;13.79;84.45
23427;BME280;41148;45.420;10.952;2023-04-29T05:56:37;100633.78;;;13.84;83.88
23427;BME280;41148;45.420;10.952;2023-04-29T05:59:04;100624.72;;;13.86;83.93
23427;BME280;41148;45.420;10.952;2023-04-29T06:01:32;100644.03;;;13.94;84.16
23427;BME280;41148;45.420;10.952;2023-04-29T06:04:00;100643.88;;;13.97;83.69
23427;BME280;41148;45.420;10.952;2023-04-29T06:06:41;100649.16;;;13.99;83.06
23427;BME280;41148;45.420;10.952;2023-04-29T06:09:18;100649.06;;;14.02;82.63
23427;BME280;41148;45.420;10.952;2023-04-29T06:11:56;100662.53;;;14.21;81.54
23427;BME280;41148;45.420;10.952;2023-04-29T06:14:24;100670.66;;;14.19;81.48
23427;BME280;41148;45.420;10.952;2023-04-29T06:16:52;100647.97;;;14.06;81.37
23427;BME280;41148;45.420;10.952;2023-04-29T06:19:20;100657.69;;;14.09;81.87
23427;BME280;41148;45.420;10.952;2023-04-29T06:21:48;100666.81;;;14.25;81.70
23427;BME280;41148;45.420;10.952;2023-04-29T06:24:15;100663.25;;;14.24;80.50
23427;BME280;41148;45.420;10.952;2023-04-29T06:26:43;100653.72;;;14.19;80.33
23427;BME280;41148;45.420;10.952;2023-04-29T06:29:11;100672.63;;;14.14;79.44
23427;BME280;41148;45.420;10.952;2023-04-29T06:31:38;100690.53;;;14.34;78.37
23427;BME280;41148;45.420;10.952;2023-04-29T06:34:07;100676.25;;;14.33;78.52
23427;BME280;41148;45.420;10.952;2023-04-29T06:36:44;100664.81;;;14.30;78.49
23427;BME280;41148;45.420;10.952;2023-04-29T06:39:39;100660.19;;;14.33;79.47
23427;BME280;41148;45.420;10.952;2023-04-29T06:42:14;100668.16;;;14.55;78.87
23427;BME280;41148;45.420;10.952;2023-04-29T06:45:02;100663.56;;;14.59;78.07
23427;BME280;41148;45.420;10.952;2023-04-29T06:47:44;100667.09;;;14.39;77.92
23427;BME280;41148;45.420;10.952;2023-04-29T06:50:22;100669.91;;;14.36;77.73
23427;BME280;41148;45.420;10.952;2023-04-29T06:52:51;100668.84;;;14.40;77.50
23427;BME280;41148;45.420;10.952;2023-04-29T06:55:22;100671.34;;;14.45;77.35
23427;BME280;41148;45.420;10.952;2023-04-29T06:57:50;100663.41;;;14.42;77.49
23427;BME280;41148;45.420;10.952;2023-04-29T07:00:18;100651.81;;;14.41;77.66
23427;BME280;41148;45.420;10.952;2023-04-29T07:02:47;100655.28;;;14.43;78.22
23427;BME280;41148;45.420;10.952;2023-04-29T07:05:15;100650.28;;;14.56;76.61
23427;BME280;41148;45.420;10.952;2023-04-29T07:07:43;100653.03;;;14.54;76.05
23427;BME280;41148;45.420;10.952;2023-04-29T07:10:10;100651.28;;;14.53;75.94
23427;BME280;41148;45.420;10.952;2023-04-29T07:12:38;100656.72;;;14.52;75.36
23427;BME280;41148;45.420;10.952;2023-04-29T07:15:06;100660.28;;;14.52;73.92
23427;BME280;41148;45.420;10.952;2023-04-29T07:17:33;100666.16;;;14.60;75.41
23427;BME280;41148;45.420;10.952;2023-04-29T07:20:01;100658.84;;;14.64;74.79
23427;BME280;41148;45.420;10.952;2023-04-29T07:22:30;100652.00;;;14.77;72.86
23427;BME280;41148;45.420;10.952;2023-04-29T07:24:57;100655.34;;;14.82;72.50
23427;BME280;41148;45.420;10.952;2023-04-29T07:27:25;100647.34;;;14.81;71.91
23427;BME280;41148;45.420;10.952;2023-04-29T07:29:52;100642.59;;;14.87;72.15
23427;BME280;41148;45.420;10.952;2023-04-29T07:32:20;100649.28;;;14.98;73.10
23427;BME280;41148;45.420;10.952;2023-04-29T07:34:48;100652.50;;;15.04;71.32
23427;BME280;41148;45.420;10.952;2023-04-29T07:37:16;100661.88;;;15.14;71.52
23427;BME280;41148;45.420;10.952;2023-04-29T07:39:44;100656.50;;;15.14;71.84
23427;BME280;41148;45.420;10.952;2023-04-29T07:42:12;100653.19;;;15.28;71.22
23427;BME280;41148;45.420;10.952;2023-04-29T07:44:40;100649.38;;;15.32;71.06
23427;BME280;41148;45.420;10.952;2023-04-29T07:47:08;100655.97;;;15.44;69.73
23427;BME280;41148;45.420;10.952;2023-04-29T07:49:35;100659.94;;;15.37;68.67
23427;BME280;41148;45.420;10.952;2023-04-29T07:52:04;100674.72;;;15.45;66.22
23427;BME280;41148;45.420;10.952;2023-04-29T07:54:32;100677.63;;;15.41;67.59
23427;BME280;41148;45.420;10.952;2023-04-29T07:56:59;100680.28;;;15.41;67.59
23427;BME280;41148;45.420;10.952;2023-04-29T07:59:30;100691.53;;;15.49;68.01
23427;BME280;41148;45.420;10.952;2023-04-29T08:01:58;100691.63;;;15.48;67.60
23427;BME280;41148;45.420;10.952;2023-04-29T08:04:25;100689.56;;;15.53;67.32
23427;BME280;41148;45.420;10.952;2023-04-29T08:07:03;100681.66;;;15.50;64.62
23427;BME280;41148;45.420;10.952;2023-04-29T08:09:30;100692.84;;;15.59;65.98
23427;BME280;41148;45.420;10.952;2023-04-29T08:11:58;100693.66;;;15.61;65.93
23427;BME280;41148;45.420;10.952;2023-04-29T08:14:25;100700.84;;;15.61;67.09
23427;BME280;41148;45.420;10.952;2023-04-29T08:16:53;100685.94;;;15.54;68.02
23427;BME280;41148;45.420;10.952;2023-04-29T08:19:21;100705.69;;;15.71;67.86
23427;BME280;41148;45.420;10.952;2023-04-29T08:21:49;100698.50;;;15.72;67.59
23427;BME280;41148;45.420;10.952;2023-04-29T08:24:18;100711.00;;;15.73;65.83
23427;BME280;41148;45.420;10.952;2023-04-29T08:26:46;100695.69;;;15.75;64.89
23427;BME280;41148;45.420;10.952;2023-04-29T08:29:15;100695.59;;;15.77;64.70
23427;BME280;41148;45.420;10.952;2023-04-29T08:31:43;100703.84;;;15.91;64.47
23427;BME280;41148;45.420;10.952;2023-04-29T08:34:11;100708.13;;;15.95;64.40
23427;BME280;41148;45.420;10.952;2023-04-29T08:36:39;100687.97;;;15.86;64.19
23427;BME280;41148;45.420;10.952;2023-04-29T08:39:06;100711.09;;;15.89;64.76
23427;BME280;41148;45.420;10.952;2023-04-29T08:41:35;100712.97;;;16.06;64.35
23427;BME280;41148;45.420;10.952;2023-04-29T08:44:03;100712.59;;;16.13;63.22
23427;BME280;41148;45.420;10.952;2023-04-29T08:46:31;100704.75;;;16.26;61.87
23427;BME280;41148;45.420;10.952;2023-04-29T08:49:02;100702.47;;;16.36;61.75
23427;BME280;41148;45.420;10.952;2023-04-29T08:51:30;100707.19;;;16.48;61.61
23427;BME280;41148;45.420;10.952;2023-04-29T08:53:59;100715.25;;;16.48;59.37
23427;BME280;41148;45.420;10.952;2023-04-29T08:56:27;100710.06;;;16.45;59.82
23427;BME280;41148;45.420;10.952;2023-04-29T08:58:57;100700.38;;;16.58;59.77
23427;BME280;41148;45.420;10.952;2023-04-29T09:01:28;100703.09;;;16.75;56.02
23427;BME280;41148;45.420;10.952;2023-04-29T09:04:08;100706.41;;;17.13;52.94
23427;BME280;41148;45.420;10.952;2023-04-29T09:06:38;100701.94;;;17.30;53.68
23427;BME280;41148;45.420;10.952;2023-04-29T09:09:07;100702.78;;;17.30;53.60
23427;BME280;41148;45.420;10.952;2023-04-29T09:11:35;100696.44;;;17.31;53.14
23427;BME280;41148;45.420;10.952;2023-04-29T09:14:03;100702.69;;;17.32;51.72
23427;BME280;41148;45.420;10.952;2023-04-29T09:16:31;100708.50;;;17.24;51.66
23427;BME280;41148;45.420;10.952;2023-04-29T09:18:58;100699.97;;;17.16;52.90
23427;BME280;41148;45.420;10.952;2023-04-29T09:21:27;100703.63;;;17.15;53.35
23427;BME280;41148;45.420;10.952;2023-04-29T09:23:56;100694.78;;;17.13;54.13
23427;BME280;41148;45.420;10.952;2023-04-29T09:26:25;100695.22;;;17.21;53.63
23427;BME280;41148;45.420;10.952;2023-04-29T09:29:09;100685.00;;;17.28;51.59
23427;BME280;41148;45.420;10.952;2023-04-29T09:31:38;100682.81;;;17.34;50.84
23427;BME280;41148;45.420;10.952;2023-04-29T09:34:06;100688.03;;;17.37;50.89
23427;BME280;41148;45.420;10.952;2023-04-29T09:36:51;100683.34;;;17.41;51.07
23427;BME280;41148;45.420;10.952;2023-04-29T09:39:23;100687.84;;;17.56;51.23
23427;BME280;41148;45.420;10.952;2023-04-29T09:44:21;100679.22;;;17.65;53.29
23427;BME280;41148;45.420;10.952;2023-04-29T09:47:02;100681.31;;;17.92;52.61
23427;BME280;41148;45.420;10.952;2023-04-29T09:52:08;100683.84;;;17.95;49.79
23427;BME280;41148;45.420;10.952;2023-04-29T09:54:38;100675.28;;;17.72;50.10
23427;BME280;41148;45.420;10.952;2023-04-29T09:57:12;100673.88;;;17.81;51.84
23427;BME280;41148;45.420;10.952;2023-04-29T09:59:42;100652.66;;;17.75;52.42
23427;BME280;41148;45.420;10.952;2023-04-29T10:02:17;100660.22;;;17.84;52.58
23427;BME280;41148;45.420;10.952;2023-04-29T10:04:46;100656.72;;;17.98;50.88
23427;BME280;41148;45.420;10.952;2023-04-29T10:07:15;100661.69;;;17.74;50.25
23427;BME280;41148;45.420;10.952;2023-04-29T10:09:45;100669.50;;;17.63;51.64
23427;BME280;41148;45.420;10.952;2023-04-29T10:12:18;100661.72;;;17.58;51.11
23427;BME280;41148;45.420;10.952;2023-04-29T10:14:57;100658.66;;;17.49;51.39
23427;BME280;41148;45.420;10.952;2023-04-29T10:17:42;100663.44;;;17.59;52.22
23427;BME280;41148;45.420;10.952;2023-04-29T10:20:23;100652.38;;;17.64;52.40
23427;BME280;41148;45.420;10.952;2023-04-29T10:22:52;100651.09;;;17.87;51.07
23427;BME280;41148;45.420;10.952;2023-04-29T10:25:23;100641.72;;;17.78;51.52
23427;BME280;41148;45.420;10.952;2023-04-29T10:27:54;100651.69;;;18.22;50.85
23427;BME280;41148;45.420;10.952;2023-04-29T10:30:22;100648.25;;;18.34;50.81
23427;BME280;41148;45.420;10.952;2023-04-29T10:32:50;100646.13;;;18.39;51.26
23427;BME280;41148;45.420;10.952;2023-04-29T10:35:20;100632.81;;;18.66;50.33
23427;BME280;41148;45.420;10.952;2023-04-29T10:37:52;100625.25;;;18.57;49.96
23427;BME280;41148;45.420;10.952;2023-04-29T10:40:47;100636.88;;;18.29;49.76
23427;BME280;41148;45.420;10.952;2023-04-29T10:43:23;100635.78;;;18.17;50.33
23427;BME280;41148;45.420;10.952;2023-04-29T10:48:44;100628.81;;;18.13;50.38
23427;BME280;41148;45.420;10.952;2023-04-29T10:51:12;100614.56;;;18.11;50.33
23427;BME280;41148;45.420;10.952;2023-04-29T10:54:13;100611.88;;;18.55;49.57
23427;BME280;41148;45.420;10.952;2023-04-29T10:56:51;100600.66;;;18.62;50.10
23427;BME280;41148;45.420;10.952;2023-04-29T10:59:44;100604.19;;;18.78;50.39
23427;BME280;41148;45.420;10.952;2023-04-29T11:02:12;100601.00;;;18.85;50.54
23427;BME280;41148;45.420;10.952;2023-04-29T11:05:06;100617.16;;;19.00;49.82
23427;BME280;41148;45.420;10.952;2023-04-29T11:07:35;100605.88;;;19.07;50.21
23427;BME280;41148;45.420;10.952;2023-04-29T11:10:03;100612.03;;;19.24;50.52
23427;BME280;41148;45.420;10.952;2023-04-29T11:12:30;100604.56;;;19.41;49.36
23427;BME280;41148;45.420;10.952;2023-04-29T11:14:58;100595.03;;;19.36;49.90
23427;BME280;41148;45.420;10.952;2023-04-29T11:17:35;100582.31;;;19.24;48.45
23427;BME280;41148;45.420;10.952;2023-04-29T11:20:09;100594.59;;;19.15;49.24
23427;BME280;41148;45.420;10.952;2023-04-29T11:22:36;100594.22;;;19.21;50.03
23427;BME280;41148;45.420;10.952;2023-04-29T11:25:05;100591.69;;;19.18;49.34
23427;BME280;41148;45.420;10.952;2023-04-29T11:27:35;100598.47;;;19.11;49.96
23427;BME280;41148;45.420;10.952;2023-04-29T11:30:05;100592.66;;;19.17;50.30
23427;BME280;41148;45.420;10.952;2023-04-29T11:32:39;100600.84;;;19.15;51.00
23427;BME280;41148;45.420;10.952;2023-04-29T11:35:14;100590.63;;;19.21;50.67
23427;BME280;41148;45.420;10.952;2023-04-29T11:37:43;100586.78;;;19.10;50.26
23427;BME280;41148;45.420;10.952;2023-04-29T11:40:12;100587.28;;;19.03;51.14
23427;BME280;41148;45.420;10.952;2023-04-29T11:42:43;100590.38;;;19.11;51.33
23427;BME280;41148;45.420;10.952;2023-04-29T11:45:11;100578.03;;;19.07;50.42
23427;BME280;41148;45.420;10.952;2023-04-29T11:47:43;100595.78;;;19.11;51.23
23427;BME280;41148;45.420;10.952;2023-04-29T11:50:14;100597.84;;;19.20;50.77
23427;BME280;41148;45.420;10.952;2023-04-29T11:52:45;100588.81;;;19.21;50.63
23427;BME280;41148;45.420;10.952;2023-04-29T11:55:13;100577.81;;;19.10;50.62
23427;BME280;41148;45.420;10.952;2023-04-29T11:57:41;100584.66;;;19.15;51.34
23427;BME280;41148;45.420;10.952;2023-04-29T12:00:12;100587.47;;;19.14;51.08
23427;BME280;41148;45.420;10.952;2023-04-29T12:02:42;100585.13;;;19.22;51.13
23427;BME280;41148;45.420;10.952;2023-04-29T12:05:10;100575.25;;;19.35;50.19
23427;BME280;41148;45.420;10.952;2023-04-29T12:07:39;100593.69;;;19.29;51.60
23427;BME280;41148;45.420;10.952;2023-04-29T12:10:08;100589.50;;;19.37;51.59
23427;BME280;41148;45.420;10.952;2023-04-29T12:12:38;100582.81;;;19.30;52.18
23427;BME280;41148;45.420;10.952;2023-04-29T12:15:08;100600.03;;;19.42;52.34
23427;BME280;41148;45.420;10.952;2023-04-29T12:17:37;100588.53;;;19.38;51.81
23427;BME280;41148;45.420;10.952;2023-04-29T12:20:06;100580.19;;;19.29;51.31
23427;BME280;41148;45.420;10.952;2023-04-29T12:22:35;100578.28;;;19.16;52.56
23427;BME280;41148;45.420;10.952;2023-04-29T12:25:03;100571.81;;;19.19;52.96
23427;BME280;41148;45.420;10.952;2023-04-29T12:27:32;100587.25;;;19.17;52.67
23427;BME280;41148;45.420;10.952;2023-04-29T12:30:00;100581.03;;;18.88;53.11
23427;BME280;41148;45.420;10.952;2023-04-29T12:32:28;100586.69;;;19.12;52.48
23427;BME280;41148;45.420;10.952;2023-04-29T12:34:55;100590.44;;;19.24;52.49
23427;BME280;41148;45.420;10.952;2023-04-29T12:37:23;100576.06;;;19.23;52.27
23427;BME280;41148;45.420;10.952;2023-04-29T12:39:50;100573.53;;;19.20;53.00
23427;BME280;41148;45.420;10.952;2023-04-29T12:42:19;100576.44;;;19.17;53.93
23427;BME280;41148;45.420;10.952;2023-04-29T12:44:47;100570.69;;;19.09;53.91
23427;BME280;41148;45.420;10.952;2023-04-29T12:47:15;100555.28;;;19.11;53.97
23427;BME280;41148;45.420;10.952;2023-04-29T12:49:45;100544.50;;;18.97;54.62
23427;BME280;41148;45.420;10.952;2023-04-29T12:52:13;100528.59;;;18.92;54.50
23427;BME280;41148;45.420;10.952;2023-04-29T12:54:41;100546.84;;;19.15;54.84
23427;BME280;41148;45.420;10.952;2023-04-29T12:57:10;100548.34;;;19.34;54.22
23427;BME280;41148;45.420;10.952;2023-04-29T12:59:38;100536.78;;;19.32;54.07
23427;BME280;41148;45.420;10.952;2023-04-29T13:02:07;100529.09;;;19.38;54.11
23427;BME280;41148;45.420;10.952;2023-04-29T13:04:35;100524.50;;;19.40;54.09
23427;BME280;41148;45.420;10.952;2023-04-29T13:07:02;100532.88;;;19.36;53.71
23427;BME280;41148;45.420;10.952;2023-04-29T13:09:31;100525.34;;;19.41;54.09
23427;BME280;41148;45.420;10.952;2023-04-29T13:11:58;100517.25;;;19.41;54.35
23427;BME280;41148;45.420;10.952;2023-04-29T13:14:25;100517.31;;;19.39;53.53
23427;BME280;41148;45.420;10.952;2023-04-29T13:16:53;100514.72;;;19.38;53.87